Gure Amuitz — EASO — position and weather

sailwx.info

Track history (hours):
 
Tides and Currents Weather Stations Pressure Air Temp Water Temp Dewpoint Dewpoint Depression Visibility Wind Speed Wind Dir Waves Ship Positions

Gure Amuitz

Last reported at 2017-Apr-28 17:16 UTC. Time now 2017-Apr-28 22:01 UTC.
Position N 43°23' W 001°48'.

Length 28 m.

Type: Fishing. MMSI: 224010590.

Date/timePositionNaut miles runAvg speedWind from/ knotsBaromVisibWave heightAir tempDewpointWater temp
2017-Apr-28 17:16N 43°23' W 001°48'0 0.0
2017-Apr-28 16:59N 43°23' W 001°48'0 0.1
2017-Apr-28 16:30N 43°23' W 001°48'0 0.0
2017-Apr-28 16:00N 43°23' W 001°48'7 0.3
2017-Apr-27 19:35N 43°29' W 001°52'2 8.2
2017-Apr-27 19:23N 43°28' W 001°51'3 8.3
2017-Apr-27 19:00N 43°25' W 001°48'2 3.9
2017-Apr-27 18:30N 43°23' W 001°47'0 0.1
2017-Apr-27 18:00N 43°23' W 001°47'0 0.1
2017-Apr-27 17:30N 43°23' W 001°48'0 0.0
2017-Apr-27 17:00N 43°23' W 001°48'0 0.1
2017-Apr-27 16:30N 43°23' W 001°48'16 0.4
2017-Apr-25 20:33N 43°39' W 001°50'1 7.9
2017-Apr-25 20:22N 43°38' W 001°50'5 8.0
2017-Apr-25 19:42N 43°32' W 001°49'2 8.2
2017-Apr-25 19:29N 43°31' W 001°48'4 8.8
2017-Apr-25 18:59N 43°26' W 001°47'3 6.4
2017-Apr-25 18:30N 43°23' W 001°47'0 0.0
2017-Apr-25 18:00N 43°23' W 001°47'0 0.0
2017-Apr-25 17:30N 43°23' W 001°47'0 0.0
2017-Apr-25 17:00N 43°23' W 001°47'0 0.0
2017-Apr-25 16:30N 43°23' W 001°47'1 2.9
2017-Apr-25 16:00N 43°25' W 001°47'510.1
2017-Apr-25 15:30N 43°30' W 001°49'4810.0
2017-Apr-25 10:44N 44°15' W 002°09'2 9.7
2017-Apr-25 10:30N 44°17' W 002°10'6 9.2
2017-Apr-25 09:49N 44°24' W 002°09'2 2.3
2017-Apr-25 09:07N 44°25' W 002°09'0 0.1
2017-Apr-25 08:59N 44°25' W 002°09'4 0.8
2017-Apr-25 03:53N 44°25' W 002°04'9 5.4
2017-Apr-25 02:13N 44°33' W 001°59'0 0.9
2017-Apr-25 02:00N 44°33' W 001°59'2 3.6
2017-Apr-25 01:30N 44°35' W 001°60'4 3.3
2017-Apr-25 00:09N 44°32' W 002°04'0 1.8
2017-Apr-24 23:59N 44°32' W 002°05'0 0.6
2017-Apr-24 23:30N 44°32' W 002°05'0 0.6
2017-Apr-24 23:00N 44°33' W 002°05'0 0.2
2017-Apr-24 22:30N 44°33' W 002°05'0 0.3
2017-Apr-24 22:00N 44°33' W 002°05'0 0.6
2017-Apr-24 21:31N 44°33' W 002°05'0 0.1
2017-Apr-24 21:01N 44°33' W 002°05'0 0.0
2017-Apr-24 20:30N 44°33' W 002°05'0 0.5
2017-Apr-24 20:00N 44°33' W 002°04'1 2.4
2017-Apr-24 19:31N 44°34' W 002°03'0 0.1
2017-Apr-24 19:00N 44°34' W 002°03'0 0.3
2017-Apr-24 18:31N 44°34' W 002°03'1 1.5
2017-Apr-24 18:00N 44°35' W 002°03'5 9.7
2017-Apr-24 17:30N 44°30' W 002°01'5 9.8
2017-Apr-24 17:00N 44°25' W 001°59'5 9.8
2017-Apr-24 16:30N 44°20' W 001°58'5 9.9
2017-Apr-24 16:01N 44°16' W 001°58'5 9.1
2017-Apr-24 15:30N 44°11' W 001°58'5 9.9
2017-Apr-24 15:00N 44°06' W 001°58'5 9.8
2017-Apr-24 14:30N 44°01' W 001°58'2 1.6
2017-Apr-24 13:30N 43°60' W 001°57'1 1.1
2017-Apr-24 13:00N 43°59' W 001°57'0 0.2
2017-Apr-24 12:30N 43°59' W 001°57'3 5.3
2017-Apr-24 12:00N 43°57' W 001°55'2 3.1
2017-Apr-24 11:30N 43°56' W 001°57'3 7.0
2017-Apr-24 11:01N 43°56' W 002°02'5 9.8
2017-Apr-24 10:28N 43°50' W 002°02'25 9.7
2017-Apr-24 07:52N 43°26' W 001°53'410.1
2017-Apr-24 07:30N 43°25' W 001°49'2 3.2
2017-Apr-24 07:00N 43°23' W 001°48'0 0.0
2017-Apr-24 06:30N 43°23' W 001°48'  
2017-Apr-21 18:30N 43°23' W 001°47'0 0.2
2017-Apr-21 18:00N 43°23' W 001°47'0 0.0
2017-Apr-21 17:30N 43°23' W 001°47'0 0.0
2017-Apr-21 17:00N 43°23' W 001°47'0 0.0
2017-Apr-21 16:30N 43°23' W 001°47'5 8.8
2017-Apr-21 15:57N 43°28' W 001°48'510.5
2017-Apr-21 15:31N 43°33' W 001°49'510.3
2017-Apr-21 15:00N 43°38' W 001°50'13 0.5
2017-Apr-20 13:10N 43°25' W 001°53'2 9.5
2017-Apr-20 13:00N 43°25' W 001°51'4 7.2
2017-Apr-20 12:30N 43°24' W 001°47'1 1.4
2017-Apr-20 12:00N 43°23' W 001°47'0 0.0
2017-Apr-19 19:34N 43°23' W 001°47'0 0.0
2017-Apr-19 19:30N 43°23' W 001°47'0 0.0
2017-Apr-19 19:00N 43°23' W 001°47'0 0.0
2017-Apr-19 18:30N 43°23' W 001°47'0 0.0
2017-Apr-19 18:00N 43°23' W 001°47'0 0.1
2017-Apr-19 17:30N 43°23' W 001°47'0 0.0
2017-Apr-19 17:00N 43°23' W 001°47'0 0.0
2017-Apr-19 12:28N 43°23' W 001°47'0 0.0
2017-Apr-19 11:07N 43°23' W 001°48'0 0.0
2017-Apr-19 11:00N 43°23' W 001°47'0 0.0
2017-Apr-19 10:30N 43°23' W 001°47'0 0.0
2017-Apr-19 10:00N 43°23' W 001°47'0 0.0
2017-Apr-19 09:21N 43°23' W 001°48'0 0.0
2017-Apr-19 09:00N 43°23' W 001°47'0 0.0
2017-Apr-19 08:30N 43°23' W 001°47'0 0.0
2017-Apr-19 08:00N 43°23' W 001°47'0 0.0
2017-Apr-19 07:30N 43°23' W 001°47'0 0.0
2017-Apr-19 07:00N 43°23' W 001°47'2 4.2
2017-Apr-19 06:30N 43°25' W 001°49'3 0.3
2017-Apr-18 20:45N 43°25' W 001°53'2 8.8
2017-Apr-18 20:30N 43°25' W 001°50'3 5.2
2017-Apr-18 20:00N 43°23' W 001°47'0 0.2
2017-Apr-18 19:30N 43°23' W 001°47'0 0.0
2017-Apr-18 19:00N 43°23' W 001°47'0 0.0
2017-Apr-18 18:30N 43°23' W 001°47'0 0.1
2017-Apr-18 18:00N 43°23' W 001°48'0 0.0
2017-Apr-18 17:30N 43°23' W 001°48'  
Track history (hours):
 
Tides and Currents Weather Stations Pressure Air Temp Water Temp Dewpoint Dewpoint Depression Visibility Wind Speed Wind Dir Waves Ship Positions

Gure Amuitz

Last reported at 2017-Apr-28 17:16 UTC. Time now 2017-Apr-28 22:01 UTC.
Position N 43°23' W 001°48'.

Length 28 m.

Type: Fishing. MMSI: 224010590.

Date/timePositionNaut miles runAvg speedWind from/ knotsBaromVisibWave heightAir tempDewpointWater temp
2017-Apr-28 17:16N 43°23' W 001°48'0 0.0
2017-Apr-28 16:59N 43°23' W 001°48'0 0.1
2017-Apr-28 16:30N 43°23' W 001°48'0 0.0
2017-Apr-28 16:00N 43°23' W 001°48'7 0.3
2017-Apr-27 19:35N 43°29' W 001°52'2 8.2
2017-Apr-27 19:23N 43°28' W 001°51'3 8.3
2017-Apr-27 19:00N 43°25' W 001°48'2 3.9
2017-Apr-27 18:30N 43°23' W 001°47'0 0.1
2017-Apr-27 18:00N 43°23' W 001°47'0 0.1
2017-Apr-27 17:30N 43°23' W 001°48'0 0.0
2017-Apr-27 17:00N 43°23' W 001°48'0 0.1
2017-Apr-27 16:30N 43°23' W 001°48'16 0.4
2017-Apr-25 20:33N 43°39' W 001°50'1 7.9
2017-Apr-25 20:22N 43°38' W 001°50'5 8.0
2017-Apr-25 19:42N 43°32' W 001°49'2 8.2
2017-Apr-25 19:29N 43°31' W 001°48'4 8.8
2017-Apr-25 18:59N 43°26' W 001°47'3 6.4
2017-Apr-25 18:30N 43°23' W 001°47'0 0.0
2017-Apr-25 18:00N 43°23' W 001°47'0 0.0
2017-Apr-25 17:30N 43°23' W 001°47'0 0.0
2017-Apr-25 17:00N 43°23' W 001°47'0 0.0
2017-Apr-25 16:30N 43°23' W 001°47'1 2.9
2017-Apr-25 16:00N 43°25' W 001°47'510.1
2017-Apr-25 15:30N 43°30' W 001°49'4810.0
2017-Apr-25 10:44N 44°15' W 002°09'2 9.7
2017-Apr-25 10:30N 44°17' W 002°10'6 9.2
2017-Apr-25 09:49N 44°24' W 002°09'2 2.3
2017-Apr-25 09:07N 44°25' W 002°09'0 0.1
2017-Apr-25 08:59N 44°25' W 002°09'4 0.8
2017-Apr-25 03:53N 44°25' W 002°04'9 5.4
2017-Apr-25 02:13N 44°33' W 001°59'0 0.9
2017-Apr-25 02:00N 44°33' W 001°59'2 3.6
2017-Apr-25 01:30N 44°35' W 001°60'4 3.3
2017-Apr-25 00:09N 44°32' W 002°04'0 1.8
2017-Apr-24 23:59N 44°32' W 002°05'0 0.6
2017-Apr-24 23:30N 44°32' W 002°05'0 0.6
2017-Apr-24 23:00N 44°33' W 002°05'0 0.2
2017-Apr-24 22:30N 44°33' W 002°05'0 0.3
2017-Apr-24 22:00N 44°33' W 002°05'0 0.6
2017-Apr-24 21:31N 44°33' W 002°05'0 0.1
2017-Apr-24 21:01N 44°33' W 002°05'0 0.0
2017-Apr-24 20:30N 44°33' W 002°05'0 0.5
2017-Apr-24 20:00N 44°33' W 002°04'1 2.4
2017-Apr-24 19:31N 44°34' W 002°03'0 0.1
2017-Apr-24 19:00N 44°34' W 002°03'0 0.3
2017-Apr-24 18:31N 44°34' W 002°03'1 1.5
2017-Apr-24 18:00N 44°35' W 002°03'5 9.7
2017-Apr-24 17:30N 44°30' W 002°01'5 9.8
2017-Apr-24 17:00N 44°25' W 001°59'5 9.8
2017-Apr-24 16:30N 44°20' W 001°58'5 9.9
2017-Apr-24 16:01N 44°16' W 001°58'5 9.1
2017-Apr-24 15:30N 44°11' W 001°58'5 9.9
2017-Apr-24 15:00N 44°06' W 001°58'5 9.8
2017-Apr-24 14:30N 44°01' W 001°58'2 1.6
2017-Apr-24 13:30N 43°60' W 001°57'1 1.1
2017-Apr-24 13:00N 43°59' W 001°57'0 0.2
2017-Apr-24 12:30N 43°59' W 001°57'3 5.3
2017-Apr-24 12:00N 43°57' W 001°55'2 3.1
2017-Apr-24 11:30N 43°56' W 001°57'3 7.0
2017-Apr-24 11:01N 43°56' W 002°02'5 9.8
2017-Apr-24 10:28N 43°50' W 002°02'25 9.7
2017-Apr-24 07:52N 43°26' W 001°53'410.1
2017-Apr-24 07:30N 43°25' W 001°49'2 3.2
2017-Apr-24 07:00N 43°23' W 001°48'0 0.0
2017-Apr-24 06:30N 43°23' W 001°48'  
2017-Apr-21 18:30N 43°23' W 001°47'0 0.2
2017-Apr-21 18:00N 43°23' W 001°47'0 0.0
2017-Apr-21 17:30N 43°23' W 001°47'0 0.0
2017-Apr-21 17:00N 43°23' W 001°47'0 0.0
2017-Apr-21 16:30N 43°23' W 001°47'5 8.8
2017-Apr-21 15:57N 43°28' W 001°48'510.5
2017-Apr-21 15:31N 43°33' W 001°49'510.3
2017-Apr-21 15:00N 43°38' W 001°50'13 0.5
2017-Apr-20 13:10N 43°25' W 001°53'2 9.5
2017-Apr-20 13:00N 43°25' W 001°51'4 7.2
2017-Apr-20 12:30N 43°24' W 001°47'1 1.4
2017-Apr-20 12:00N 43°23' W 001°47'0 0.0
2017-Apr-19 19:34N 43°23' W 001°47'0 0.0
2017-Apr-19 19:30N 43°23' W 001°47'0 0.0
2017-Apr-19 19:00N 43°23' W 001°47'0 0.0
2017-Apr-19 18:30N 43°23' W 001°47'0 0.0
2017-Apr-19 18:00N 43°23' W 001°47'0 0.1
2017-Apr-19 17:30N 43°23' W 001°47'0 0.0
2017-Apr-19 17:00N 43°23' W 001°47'0 0.0
2017-Apr-19 12:28N 43°23' W 001°47'0 0.0
2017-Apr-19 11:07N 43°23' W 001°48'0 0.0
2017-Apr-19 11:00N 43°23' W 001°47'0 0.0
2017-Apr-19 10:30N 43°23' W 001°47'0 0.0
2017-Apr-19 10:00N 43°23' W 001°47'0 0.0
2017-Apr-19 09:21N 43°23' W 001°48'0 0.0
2017-Apr-19 09:00N 43°23' W 001°47'0 0.0
2017-Apr-19 08:30N 43°23' W 001°47'0 0.0
2017-Apr-19 08:00N 43°23' W 001°47'0 0.0
2017-Apr-19 07:30N 43°23' W 001°47'0 0.0
2017-Apr-19 07:00N 43°23' W 001°47'2 4.2
2017-Apr-19 06:30N 43°25' W 001°49'3 0.3
2017-Apr-18 20:45N 43°25' W 001°53'2 8.8
2017-Apr-18 20:30N 43°25' W 001°50'3 5.2
2017-Apr-18 20:00N 43°23' W 001°47'0 0.2
2017-Apr-18 19:30N 43°23' W 001°47'0 0.0
2017-Apr-18 19:00N 43°23' W 001°47'0 0.0
2017-Apr-18 18:30N 43°23' W 001°47'0 0.1
2017-Apr-18 18:00N 43°23' W 001°48'0 0.0
2017-Apr-18 17:30N 43°23' W 001°48'  

Dump ship's entire track history